createdAt,value
2019-02-23T00:02:05.634Z,103955.73
2019-02-23T00:05:12.079Z,103953.05
2019-02-23T00:08:18.420Z,103937.58
2019-02-23T00:11:26.871Z,103935.91
2019-02-23T00:14:33.209Z,103931.50
2019-02-23T00:17:39.576Z,103946.80
2019-02-23T00:20:45.904Z,103941.54
2019-02-23T00:23:52.270Z,103934.27
2019-02-23T00:26:58.660Z,103929.67
2019-02-23T00:30:05.466Z,103918.44
2019-02-23T00:33:11.727Z,103903.77
2019-02-23T00:36:18.062Z,103886.68
2019-02-23T00:39:24.520Z,103901.86
2019-02-23T00:42:30.949Z,103896.55
2019-02-23T00:45:37.212Z,103882.89
2019-02-23T00:48:43.598Z,103882.89
2019-02-23T00:51:51.759Z,103892.06
2019-02-23T00:54:57.949Z,103883.66
2019-02-23T00:58:04.324Z,103881.00
2019-02-23T01:01:10.660Z,103863.13
2019-02-23T01:04:17.013Z,103861.47
2019-02-23T01:07:23.455Z,103859.16
2019-02-23T01:10:29.799Z,103870.25
2019-02-23T01:13:36.135Z,103854.13
2019-02-23T01:16:42.475Z,103855.75
2019-02-23T01:19:48.821Z,103840.34
2019-02-23T01:22:55.168Z,103830.09
2019-02-23T01:26:01.413Z,103831.75
2019-02-23T01:29:07.751Z,103840.03
2019-02-23T01:32:14.107Z,103845.25
2019-02-23T01:35:20.417Z,103857.50
2019-02-23T01:38:26.854Z,103853.47
2019-02-23T01:41:33.197Z,103815.44
2019-02-23T01:44:39.442Z,103826.44
2019-02-23T01:47:45.811Z,103844.38
2019-02-23T01:50:52.220Z,103846.53
2019-02-23T01:53:58.608Z,103832.75
2019-02-23T01:57:04.977Z,103824.38
2019-02-23T02:00:13.035Z,103817.44
2019-02-23T02:03:19.941Z,103788.97
2019-02-23T02:06:26.318Z,103773.40
2019-02-23T02:09:32.829Z,103756.55
2019-02-23T02:12:39.371Z,103743.98
2019-02-23T02:15:45.695Z,103743.27
2019-02-23T02:18:51.966Z,103736.80
2019-02-23T02:21:58.388Z,103733.30
2019-02-23T02:25:04.833Z,103731.72
2019-02-23T02:28:11.298Z,103738.39
2019-02-23T02:31:17.565Z,103754.77
2019-02-23T02:34:23.930Z,103764.91
2019-02-23T02:37:30.373Z,103780.52
2019-02-23T02:40:36.708Z,103777.10
2019-02-23T02:43:43.093Z,103791.59
2019-02-23T02:46:49.448Z,103797.11
2019-02-23T02:49:55.936Z,103795.66
2019-02-23T02:53:02.222Z,103794.68
2019-02-23T02:56:08.535Z,103773.84
2019-02-23T02:59:14.867Z,103752.00
2019-02-23T03:02:21.706Z,103739.13
2019-02-23T03:05:28.143Z,103759.91
2019-02-23T03:08:34.506Z,103749.31
2019-02-23T03:11:41.190Z,103748.54
2019-02-23T03:14:47.530Z,103749.83
2019-02-23T03:17:53.868Z,103748.78
2019-02-23T03:21:00.235Z,103743.50
2019-02-23T03:24:06.564Z,103729.58
2019-02-23T03:27:12.932Z,103724.77
2019-02-23T03:30:19.271Z,103736.14
2019-02-23T03:33:25.521Z,103726.05
2019-02-23T03:36:31.860Z,103723.63
2019-02-23T03:39:38.284Z,103720.84
2019-02-23T03:42:44.567Z,103729.31
2019-02-23T03:45:50.825Z,103713.95
2019-02-23T03:48:57.165Z,103743.77
2019-02-23T03:52:03.552Z,103728.41
2019-02-23T03:55:09.930Z,103736.31
2019-02-23T03:58:16.394Z,103728.30
2019-02-23T04:01:22.687Z,103739.30
2019-02-23T04:04:29.062Z,103715.28
2019-02-23T04:07:35.420Z,103718.65
2019-02-23T04:10:41.685Z,103711.72
2019-02-23T04:13:48.173Z,103720.80
2019-02-23T04:16:54.538Z,103738.62
2019-02-23T04:20:01.018Z,103736.16
2019-02-23T04:23:07.459Z,103734.08
2019-02-23T04:26:13.776Z,103732.06
2019-02-23T04:29:20.062Z,103723.17
2019-02-23T04:32:26.507Z,103705.88
2019-02-23T04:35:32.880Z,103702.69
2019-02-23T04:38:39.221Z,103720.18
2019-02-23T04:41:45.583Z,103699.73
2019-02-23T04:44:51.948Z,103694.05
2019-02-23T04:47:58.382Z,103706.39
2019-02-23T04:51:13.763Z,103703.72
2019-02-23T04:54:13.927Z,103701.88
2019-02-23T04:57:21.297Z,103692.92
2019-02-23T05:00:27.639Z,103695.34
2019-02-23T05:03:33.929Z,103701.59
2019-02-23T05:06:40.208Z,103692.95
2019-02-23T05:09:46.713Z,103697.13
2019-02-23T05:12:52.991Z,103700.09
2019-02-23T05:15:59.481Z,103709.18
2019-02-23T05:19:05.855Z,103697.41
2019-02-23T05:22:12.183Z,103711.45
2019-02-23T05:25:18.525Z,103702.33
2019-02-23T05:28:24.868Z,103703.79
2019-02-23T05:31:31.576Z,103689.16
2019-02-23T05:34:37.917Z,103681.48
2019-02-23T05:37:44.233Z,103692.62
2019-02-23T05:40:50.589Z,103695.54
2019-02-23T05:43:56.883Z,103690.73
2019-02-23T05:47:03.246Z,103688.98
2019-02-23T05:50:09.593Z,103672.24
2019-02-23T05:53:15.986Z,103675.88
2019-02-23T05:56:22.381Z,103668.27
2019-02-23T05:59:28.662Z,103663.39
2019-02-23T06:02:35.149Z,103664.92
2019-02-23T06:05:41.524Z,103660.48
2019-02-23T06:08:47.889Z,103649.81
2019-02-23T06:11:54.231Z,103664.73
2019-02-23T06:15:00.610Z,103653.79
2019-02-23T06:18:07.047Z,103657.14
2019-02-23T06:21:13.453Z,103656.66
2019-02-23T06:24:19.711Z,103662.92
2019-02-23T06:27:26.064Z,103669.38
2019-02-23T06:30:32.441Z,103681.53
2019-02-23T06:33:38.804Z,103680.66
2019-02-23T06:36:45.057Z,103682.00
2019-02-23T06:39:51.462Z,103700.58
2019-02-23T06:42:58.046Z,103681.05
2019-02-23T06:46:05.621Z,103680.77
2019-02-23T06:49:12.108Z,103693.07
2019-02-23T06:52:18.546Z,103710.98
2019-02-23T06:55:24.955Z,103713.06
2019-02-23T06:58:31.299Z,103720.20
2019-02-23T07:01:37.733Z,103729.84
2019-02-23T07:04:44.059Z,103711.94
2019-02-23T07:07:50.978Z,103709.82
2019-02-23T07:10:57.350Z,103698.45
2019-02-23T07:14:04.814Z,103701.34
2019-02-23T07:17:11.199Z,103704.61
2019-02-23T07:20:17.670Z,103716.34
2019-02-23T07:23:24.103Z,103708.47
2019-02-23T07:26:30.544Z,103701.92
2019-02-23T07:29:36.891Z,103688.18
2019-02-23T07:32:43.323Z,103689.98
2019-02-23T07:35:49.814Z,103691.34
2019-02-23T07:38:56.182Z,103698.08
2019-02-23T07:42:02.565Z,103686.72
2019-02-23T07:45:11.761Z,103692.33
2019-02-23T07:48:18.149Z,103679.03
2019-02-23T07:51:24.504Z,103684.52
2019-02-23T07:54:30.883Z,103671.91
2019-02-23T07:57:37.332Z,103666.52
2019-02-23T08:00:43.740Z,103659.00
2019-02-23T08:03:50.398Z,103654.56
2019-02-23T08:06:56.792Z,103669.77
2019-02-23T08:10:03.246Z,103674.20
2019-02-23T08:13:09.952Z,103686.06
2019-02-23T08:16:16.618Z,103691.17
2019-02-23T08:19:22.997Z,103690.86
2019-02-23T08:22:37.111Z,103705.02
2019-02-23T08:25:37.556Z,103701.15
2019-02-23T08:28:43.905Z,103705.77
2019-02-23T08:31:50.269Z,103718.88
2019-02-23T08:34:56.675Z,103720.22
2019-02-23T08:38:02.943Z,103723.03
2019-02-23T08:41:09.344Z,103700.56
2019-02-23T08:44:15.750Z,103698.83
2019-02-23T08:47:22.232Z,103692.09
2019-02-23T08:50:28.537Z,103703.63
2019-02-23T08:53:34.968Z,103619.13
2019-02-23T08:56:41.287Z,103691.85
2019-02-23T08:59:47.657Z,103695.81
2019-02-23T09:02:54.276Z,103710.23
2019-02-23T09:06:00.685Z,103697.42
2019-02-23T09:09:08.213Z,103703.97
2019-02-23T09:12:15.238Z,103686.82
2019-02-23T09:15:22.375Z,103682.58
2019-02-23T09:18:28.766Z,103672.17
2019-02-23T09:21:35.125Z,103689.86
2019-02-23T09:24:41.593Z,103679.77
2019-02-23T09:27:48.020Z,103695.81
2019-02-23T09:30:54.498Z,103695.50
2019-02-23T09:34:00.837Z,103700.42
2019-02-23T09:37:07.209Z,103713.00
2019-02-23T09:40:13.605Z,103716.81
2019-02-23T09:43:19.995Z,103720.39
2019-02-23T09:46:26.426Z,103694.97
2019-02-23T09:49:32.750Z,103680.75
2019-02-23T10:27:52.793Z,103659.38
2019-02-23T10:30:59.389Z,103659.97
2019-02-23T10:34:09.803Z,103644.47
2019-02-23T10:37:16.321Z,103636.28
2019-02-23T10:40:22.683Z,103630.67
2019-02-23T10:43:31.320Z,103631.41
2019-02-23T10:46:37.807Z,103610.16
2019-02-23T10:49:44.857Z,103620.27
2019-02-23T10:52:51.366Z,103613.12
2019-02-23T10:55:58.855Z,103623.92
2019-02-23T10:59:05.295Z,103630.42
2019-02-23T11:05:58.302Z,103631.95
2019-02-23T11:09:05.621Z,103615.27
2019-02-23T11:12:14.801Z,103620.88
2019-02-23T11:15:23.382Z,103619.48
2019-02-23T11:18:29.898Z,103623.85
2019-02-23T11:21:36.239Z,103626.50
2019-02-23T11:24:42.634Z,103619.63
2019-02-23T11:27:49.113Z,103612.50
2019-02-23T11:30:55.472Z,103595.48
2019-02-23T11:34:01.849Z,103601.51
2019-02-23T11:37:08.180Z,103600.16
2019-02-23T11:40:14.723Z,103594.67
2019-02-23T11:43:21.241Z,103584.88
2019-02-23T11:46:27.691Z,103597.52
2019-02-23T11:49:34.056Z,103593.67
2019-02-23T11:52:40.526Z,103594.40
2019-02-23T11:55:46.913Z,103585.03
2019-02-23T11:58:54.438Z,103600.38
2019-02-23T12:02:00.811Z,103603.20
2019-02-23T12:05:07.769Z,103605.96
2019-02-23T12:08:15.769Z,103613.88
2019-02-23T12:11:22.342Z,103617.09
2019-02-23T12:14:28.722Z,103610.41
2019-02-23T12:17:35.728Z,103609.02
2019-02-23T12:20:42.189Z,103611.57
2019-02-23T12:23:48.547Z,103592.27
2019-02-23T12:26:54.915Z,103575.81
2019-02-23T12:30:04.627Z,103568.95
2019-02-23T12:38:03.962Z,103595.16
2019-02-23T12:41:10.569Z,103586.98
2019-02-23T12:44:17.066Z,103596.23
2019-02-23T12:47:23.710Z,103582.97
2019-02-23T12:50:30.226Z,103573.75
2019-02-23T12:53:37.013Z,103571.77
2019-02-23T12:56:43.392Z,103584.61
2019-02-23T12:59:49.741Z,103585.81
2019-02-23T13:02:56.138Z,103580.50
2019-02-23T13:06:02.532Z,103578.13
2019-02-23T13:09:39.579Z,103573.77
2019-02-23T13:13:14.355Z,103583.28
2019-02-23T13:17:14.135Z,103513.38
2019-02-23T13:20:43.788Z,103595.80
2019-02-23T13:24:02.181Z,103594.53
2019-02-23T13:27:21.100Z,103591.25
2019-02-23T13:30:51.383Z,103576.03
2019-02-23T13:34:26.926Z,103600.42
2019-02-23T13:37:49.966Z,103587.30
2019-02-23T13:41:11.605Z,103581.54
2019-02-23T13:44:59.277Z,103582.36
2019-02-23T13:48:40.268Z,103574.48
2019-02-23T13:52:27.597Z,103571.21
2019-02-23T13:56:27.504Z,103555.42
2019-02-23T13:59:47.700Z,103570.12
2019-02-23T14:03:17.654Z,103498.59
2019-02-23T14:06:32.911Z,103559.89
2019-02-23T14:10:26.493Z,103497.09
2019-02-23T14:18:33.302Z,103546.05
2019-02-23T14:22:04.314Z,103536.61
2019-02-23T14:26:04.399Z,103510.77
2019-02-23T14:40:33.032Z,103535.27
2019-02-23T14:44:20.676Z,103538.16
2019-02-23T14:47:53.119Z,103531.61
2019-02-23T14:52:05.037Z,103521.32
2019-02-23T14:55:25.900Z,103517.18
2019-02-23T14:59:06.839Z,103519.70
2019-02-23T15:02:39.603Z,103518.09
2019-02-23T15:05:58.902Z,103519.75
2019-02-23T15:09:56.102Z,103525.47
2019-02-23T15:17:45.342Z,103500.69
2019-02-23T15:21:15.812Z,103510.20
2019-02-23T15:25:13.643Z,103497.67
2019-02-23T15:29:09.022Z,103511.23
2019-02-23T15:32:46.531Z,103508.61
2019-02-23T15:36:13.940Z,103513.88
2019-02-23T15:40:06.926Z,103518.69
2019-02-23T15:43:26.076Z,103518.07
2019-02-23T15:47:09.380Z,103528.81
2019-02-23T15:50:16.000Z,103524.97
2019-02-23T15:53:22.606Z,103541.45
2019-02-23T15:56:28.939Z,103540.30
2019-02-23T15:59:36.592Z,103534.42
2019-02-23T16:02:43.128Z,103534.64
2019-02-23T16:05:49.760Z,103552.84
2019-02-23T16:08:57.370Z,103549.47
2019-02-23T16:12:03.851Z,103556.30
2019-02-23T16:15:10.744Z,103552.35
2019-02-23T16:18:19.664Z,103549.05
2019-02-23T16:21:26.629Z,103550.79
2019-02-23T16:24:33.026Z,103541.40
2019-02-23T16:27:39.948Z,103544.93
2019-02-23T16:30:47.115Z,103540.80
2019-02-23T16:33:53.685Z,103548.08
2019-02-23T16:37:01.172Z,103531.28
2019-02-23T16:40:06.721Z,103529.00
2019-02-23T16:43:13.098Z,103528.52
2019-02-23T16:46:24.665Z,103526.42
2019-02-23T16:49:33.419Z,103513.19
2019-02-23T16:52:39.907Z,103515.77
2019-02-23T16:55:51.159Z,103505.95
2019-02-23T16:58:56.566Z,103507.73
2019-02-23T17:02:04.579Z,103514.27
2019-02-23T17:05:11.076Z,103510.37
2019-02-23T17:08:17.754Z,103508.99
2019-02-23T17:11:24.058Z,103500.63
2019-02-23T17:14:30.593Z,103498.94
2019-02-23T17:17:37.062Z,103486.61
2019-02-23T17:20:43.502Z,103490.63
2019-02-23T17:23:49.923Z,103479.92
2019-02-23T17:26:56.336Z,103443.27
2019-02-23T17:30:03.768Z,103449.27
2019-02-23T17:33:10.342Z,103435.71
2019-02-23T17:36:16.868Z,103459.41
2019-02-23T17:39:23.271Z,103459.02
2019-02-23T17:42:29.904Z,103442.12
2019-02-23T17:45:36.265Z,103456.70
2019-02-23T17:48:42.630Z,103452.51
2019-02-23T17:51:49.483Z,103460.63
2019-02-23T17:54:56.040Z,103459.20
2019-02-23T17:58:02.486Z,103451.97
2019-02-23T18:01:09.184Z,103471.16
2019-02-23T18:04:18.264Z,103473.02
2019-02-23T18:07:24.686Z,103466.42
2019-02-23T18:10:31.015Z,103481.80
2019-02-23T18:13:37.294Z,103466.96
2019-02-23T18:16:43.617Z,103464.80
2019-02-23T18:19:50.141Z,103476.14
2019-02-23T18:22:56.467Z,103478.15
2019-02-23T18:26:03.965Z,103464.66
2019-02-23T18:29:10.386Z,103468.16
2019-02-23T18:32:17.036Z,103461.67
2019-02-23T18:35:23.320Z,103443.95
2019-02-23T18:38:29.705Z,103459.55
2019-02-23T18:41:36.166Z,103449.20
2019-02-23T18:44:42.483Z,103454.13
2019-02-23T18:47:49.865Z,103439.48
2019-02-23T18:50:56.327Z,103432.41
2019-02-23T18:54:03.393Z,103429.98
2019-02-23T18:57:09.837Z,103424.20
2019-02-23T19:00:23.979Z,103426.05
2019-02-23T19:03:24.328Z,103420.66
2019-02-23T19:06:30.743Z,103417.39
2019-02-23T19:09:37.194Z,103426.27
2019-02-23T19:12:43.517Z,103424.91
2019-02-23T19:15:49.817Z,103415.67
2019-02-23T19:18:56.296Z,103411.09
2019-02-23T19:22:02.772Z,103413.03
2019-02-23T19:25:09.952Z,103418.70
2019-02-23T19:28:17.403Z,103413.78
2019-02-23T19:33:56.715Z,103395.50
2019-02-23T19:37:03.104Z,103393.16
2019-02-23T19:40:09.495Z,103392.20
2019-02-23T19:43:15.992Z,103395.26
2019-02-23T19:46:22.952Z,103399.42
2019-02-23T19:49:29.273Z,103401.17
2019-02-23T19:52:35.616Z,103401.17
2019-02-23T19:55:42.914Z,103382.36
2019-02-23T19:58:49.740Z,103376.91
2019-02-23T20:01:56.223Z,103364.47
2019-02-23T20:05:03.655Z,103363.69
2019-02-23T20:08:10.120Z,103354.64
2019-02-23T20:11:16.708Z,103350.59
2019-02-23T20:14:22.981Z,103364.20
2019-02-23T20:21:04.012Z,103374.88
2019-02-23T20:24:10.426Z,103365.05
2019-02-23T20:27:16.915Z,103356.41
2019-02-23T20:30:23.359Z,103359.44
2019-02-23T20:33:29.719Z,103368.40
2019-02-23T20:36:36.121Z,103357.48
2019-02-23T20:39:42.587Z,103353.09
2019-02-23T20:42:49.099Z,103349.72
2019-02-23T20:45:55.547Z,103343.04
2019-02-23T20:49:02.904Z,103343.04
2019-02-23T20:52:09.454Z,103352.59
2019-02-23T20:55:23.962Z,103346.27
2019-02-23T20:58:30.425Z,103332.58
2019-02-23T21:01:37.752Z,103342.02
2019-02-23T21:04:44.468Z,103349.52
2019-02-23T21:07:50.800Z,103352.09
2019-02-23T21:10:57.097Z,103353.83
2019-02-23T21:14:03.540Z,103352.27
2019-02-23T21:17:09.930Z,103354.97
2019-02-23T21:20:16.438Z,103350.12
2019-02-23T21:23:22.802Z,103349.94
2019-02-23T21:26:29.162Z,103358.23
2019-02-23T21:29:35.620Z,103360.30
2019-02-23T21:32:41.973Z,103355.78
2019-02-23T21:35:48.489Z,103358.36
2019-02-23T21:38:54.802Z,103292.75
2019-02-23T21:42:01.165Z,103370.14
2019-02-23T21:45:08.631Z,103360.30
2019-02-23T21:48:15.343Z,103352.34
2019-02-23T21:51:21.650Z,103346.34
2019-02-23T21:54:28.294Z,103343.59
2019-02-23T21:57:34.700Z,103331.51
2019-02-23T22:00:41.180Z,103335.55
2019-02-23T22:03:48.896Z,103340.73
2019-02-23T22:06:55.897Z,103345.41
2019-02-23T22:10:02.241Z,103353.62
2019-02-23T22:13:09.700Z,103358.35
2019-02-23T22:16:15.982Z,103358.20
2019-02-23T22:19:22.377Z,103357.81
2019-02-23T22:22:28.714Z,103359.63
2019-02-23T22:25:35.065Z,103351.67
2019-02-23T22:28:41.681Z,103348.41
2019-02-23T22:31:48.052Z,103344.11
2019-02-23T22:34:54.471Z,103338.39
2019-02-23T22:38:00.915Z,103342.11
2019-02-23T22:41:07.411Z,103323.78
2019-02-23T22:44:13.985Z,103330.09
2019-02-23T22:47:20.371Z,103342.23
2019-02-23T22:50:27.648Z,103246.12
2019-02-23T22:53:33.987Z,103317.02
2019-02-23T22:56:40.479Z,103304.17
2019-02-23T22:59:46.825Z,103303.53
2019-02-23T23:02:54.657Z,103290.27
2019-02-23T23:06:01.853Z,103280.05
2019-02-23T23:09:12.603Z,103280.05
2019-02-23T23:12:19.170Z,103264.20
2019-02-23T23:15:25.502Z,103264.20
2019-02-23T23:18:31.859Z,103257.02
2019-02-23T23:21:38.286Z,103262.39
2019-02-23T23:24:44.728Z,103149.03
2019-02-23T23:27:51.138Z,103259.64
2019-02-23T23:30:57.458Z,103265.77
2019-02-23T23:34:03.864Z,103269.30
2019-02-23T23:37:10.260Z,103276.09
2019-02-23T23:40:16.812Z,103281.52
2019-02-23T23:43:23.193Z,103272.53
2019-02-23T23:46:29.458Z,103273.03
2019-02-23T23:49:35.826Z,103264.22
2019-02-23T23:52:42.240Z,103259.95
2019-02-23T23:55:48.580Z,103254.42
2019-02-23T23:58:54.977Z,103250.12
